createdAt,value
2023-05-12T00:02:19.902Z,11.70
2023-05-12T00:04:47.392Z,11.70
2023-05-12T00:07:15.387Z,11.70
2023-05-12T00:09:42.699Z,11.60
2023-05-12T00:12:10.220Z,11.60
2023-05-12T00:14:37.633Z,11.60
2023-05-12T00:17:06.826Z,11.60
2023-05-12T00:19:36.508Z,11.60
2023-05-12T00:22:03.613Z,11.60
2023-05-12T00:24:30.678Z,11.60
2023-05-12T00:26:57.968Z,11.60
2023-05-12T00:29:25.229Z,11.50
2023-05-12T00:31:52.530Z,11.50
2023-05-12T00:34:19.837Z,11.50
2023-05-12T00:36:47.132Z,11.50
2023-05-12T00:39:14.437Z,11.50
2023-05-12T00:41:41.910Z,11.50
2023-05-12T00:44:09.187Z,11.50
2023-05-12T00:46:36.927Z,11.40
2023-05-12T00:49:04.533Z,11.40
2023-05-12T00:51:32.210Z,11.40
2023-05-12T00:53:59.477Z,11.40
2023-05-12T00:56:26.958Z,11.40
2023-05-12T00:58:54.240Z,11.40
2023-05-12T01:01:21.565Z,11.40
2023-05-12T01:03:49.195Z,11.40
2023-05-12T01:06:18.267Z,11.30
2023-05-12T01:08:45.629Z,11.30
2023-05-12T01:11:12.898Z,11.30
2023-05-12T01:13:41.301Z,11.30
2023-05-12T01:16:09.987Z,11.30
2023-05-12T01:18:38.444Z,11.20
2023-05-12T01:21:05.984Z,11.20
2023-05-12T01:23:37.722Z,11.20
2023-05-12T01:26:08.292Z,11.20
2023-05-12T01:28:36.132Z,11.20
2023-05-12T01:31:03.993Z,11.20
2023-05-12T01:33:31.348Z,11.10
2023-05-12T01:35:58.657Z,11.10
2023-05-12T01:38:26.050Z,11.10
2023-05-12T01:40:53.286Z,11.10
2023-05-12T01:43:22.152Z,11.10
2023-05-12T01:45:49.843Z,11.10
2023-05-12T01:48:17.113Z,11.10
2023-05-12T01:50:44.362Z,11.10
2023-05-12T01:53:12.463Z,11.10
2023-05-12T01:55:39.803Z,11.10
2023-05-12T01:58:07.033Z,11.00
2023-05-12T02:00:34.313Z,11.00
2023-05-12T02:03:01.779Z,11.00
2023-05-12T02:05:29.248Z,11.00
2023-05-12T02:07:56.536Z,11.00
2023-05-12T02:10:23.823Z,11.00
2023-05-12T02:12:50.899Z,11.00
2023-05-12T02:15:18.041Z,11.00
2023-05-12T02:17:45.348Z,11.00
2023-05-12T02:20:12.860Z,11.10
2023-05-12T02:22:40.156Z,11.10
2023-05-12T02:25:07.692Z,11.10
2023-05-12T02:27:35.062Z,11.10
2023-05-12T02:30:02.419Z,11.00
2023-05-12T02:32:29.807Z,10.90
2023-05-12T02:34:57.133Z,11.00
2023-05-12T02:37:24.425Z,10.90
2023-05-12T02:39:51.689Z,10.80
2023-05-12T02:42:18.964Z,10.80
2023-05-12T02:44:46.191Z,10.80
2023-05-12T02:47:13.463Z,10.80
2023-05-12T02:49:40.739Z,10.80
2023-05-12T02:52:08.510Z,10.90
2023-05-12T02:54:36.766Z,11.00
2023-05-12T02:57:04.922Z,11.00
2023-05-12T02:59:32.399Z,11.00
2023-05-12T03:01:59.814Z,11.00
2023-05-12T03:04:27.373Z,10.90
2023-05-12T03:06:54.813Z,10.80
2023-05-12T03:09:22.625Z,10.80
2023-05-12T03:11:49.874Z,10.80
2023-05-12T03:14:17.147Z,10.80
2023-05-12T03:16:44.417Z,10.90
2023-05-12T03:19:11.840Z,10.90
2023-05-12T03:21:39.371Z,10.90
2023-05-12T03:24:06.850Z,11.00
2023-05-12T03:26:34.097Z,11.00
2023-05-12T03:29:01.850Z,11.00
2023-05-12T03:31:29.196Z,11.10
2023-05-12T03:33:56.526Z,11.10
2023-05-12T03:36:25.108Z,11.10
2023-05-12T03:38:52.356Z,11.10
2023-05-12T03:41:19.639Z,11.10
2023-05-12T03:43:46.892Z,11.10
2023-05-12T03:46:14.243Z,11.10
2023-05-12T03:48:41.607Z,11.10
2023-05-12T03:51:08.874Z,11.20
2023-05-12T03:53:36.132Z,11.10
2023-05-12T03:56:06.626Z,11.20
2023-05-12T03:58:34.007Z,11.10
2023-05-12T04:01:01.786Z,11.10
2023-05-12T04:03:29.409Z,11.00
2023-05-12T04:06:00.232Z,11.00
2023-05-12T04:08:28.018Z,11.00
2023-05-12T04:10:56.322Z,11.00
2023-05-12T04:13:23.841Z,11.00
2023-05-12T04:15:51.474Z,10.90
2023-05-12T04:18:18.721Z,10.90
2023-05-12T04:20:45.998Z,10.90
2023-05-12T04:23:15.144Z,10.90
2023-05-12T04:25:42.740Z,11.00
2023-05-12T04:28:11.979Z,11.00
2023-05-12T04:30:40.040Z,11.00
2023-05-12T04:33:07.764Z,11.00
2023-05-12T04:35:35.153Z,10.90
2023-05-12T04:38:02.622Z,10.80
2023-05-12T04:40:30.765Z,10.80
2023-05-12T04:42:58.860Z,10.90
2023-05-12T04:45:26.196Z,10.90
2023-05-12T04:47:53.490Z,10.90
2023-05-12T04:50:20.844Z,10.90
2023-05-12T04:52:48.111Z,10.90
2023-05-12T04:55:15.350Z,10.90
2023-05-12T04:57:42.690Z,10.80
2023-05-12T05:00:10.269Z,10.90
2023-05-12T05:02:37.726Z,10.90
2023-05-12T05:05:05.258Z,10.90
2023-05-12T05:07:32.525Z,10.90
2023-05-12T05:09:59.795Z,10.90
2023-05-12T05:12:27.053Z,10.80
2023-05-12T05:14:54.385Z,10.90
2023-05-12T05:17:21.676Z,10.90
2023-05-12T05:19:57.294Z,11.00
2023-05-12T05:22:26.323Z,11.00
2023-05-12T05:24:53.684Z,11.00
2023-05-12T05:27:21.012Z,11.00
2023-05-12T05:29:49.402Z,11.00
2023-05-12T05:32:16.765Z,11.00
2023-05-12T05:34:44.095Z,11.10
2023-05-12T05:37:11.411Z,11.10
2023-05-12T05:39:38.745Z,11.10
2023-05-12T05:42:06.108Z,11.10
2023-05-12T05:44:33.417Z,11.10
2023-05-12T05:47:02.975Z,11.30
2023-05-12T05:49:30.332Z,11.30
2023-05-12T05:51:57.626Z,11.30
2023-05-12T05:54:25.497Z,11.30
2023-05-12T05:56:52.766Z,11.40
2023-05-12T05:59:19.981Z,11.50
2023-05-12T06:01:47.582Z,11.50
2023-05-12T06:04:15.072Z,11.50
2023-05-12T06:06:42.695Z,11.50
2023-05-12T06:09:12.317Z,11.70
2023-05-12T06:11:39.634Z,12.10
2023-05-12T06:14:07.091Z,11.80
2023-05-12T06:16:34.367Z,11.80
2023-05-12T06:19:01.933Z,11.90
2023-05-12T06:21:29.470Z,11.90
2023-05-12T06:23:56.925Z,11.90
2023-05-12T06:26:24.163Z,12.00
2023-05-12T06:28:51.420Z,12.00
2023-05-12T06:31:18.732Z,12.00
2023-05-12T06:33:46.143Z,12.00
2023-05-12T06:36:13.430Z,12.10
2023-05-12T06:38:41.361Z,12.00
2023-05-12T06:41:08.639Z,12.00
2023-05-12T06:43:35.901Z,12.00
2023-05-12T06:46:04.274Z,12.00
2023-05-12T06:48:31.568Z,12.00
2023-05-12T06:50:58.889Z,12.00
2023-05-12T06:53:26.405Z,12.00
2023-05-12T06:55:55.103Z,12.10
2023-05-12T06:58:22.441Z,12.10
2023-05-12T07:00:49.996Z,12.10
2023-05-12T07:03:17.498Z,12.10
2023-05-12T07:05:45.789Z,12.10
2023-05-12T07:08:13.190Z,12.10
2023-05-12T07:10:40.546Z,12.20
2023-05-12T07:13:07.844Z,12.20
2023-05-12T07:15:35.181Z,12.30
2023-05-12T07:18:04.522Z,12.20
2023-05-12T07:20:33.838Z,12.30
2023-05-12T07:23:01.160Z,12.40
2023-05-12T07:25:29.165Z,12.40
2023-05-12T07:27:57.559Z,12.40
2023-05-12T07:30:25.836Z,12.50
2023-05-12T07:32:53.345Z,12.50
2023-05-12T07:35:22.030Z,12.60
2023-05-12T07:37:49.881Z,12.60
2023-05-12T07:40:17.431Z,12.60
2023-05-12T07:42:45.396Z,12.60
2023-05-12T07:45:13.093Z,12.70
2023-05-12T07:47:40.469Z,12.70
2023-05-12T07:50:07.848Z,12.80
2023-05-12T07:52:35.187Z,12.80
2023-05-12T07:55:02.491Z,12.90
2023-05-12T07:57:29.817Z,13.00
2023-05-12T07:59:57.083Z,13.10
2023-05-12T08:02:24.447Z,13.20
2023-05-12T08:04:51.806Z,13.30
2023-05-12T08:07:19.146Z,13.30
2023-05-12T08:09:47.625Z,13.30
2023-05-12T08:12:15.020Z,13.20
2023-05-12T08:14:42.354Z,13.30
2023-05-12T08:17:11.341Z,13.30
2023-05-12T08:19:39.929Z,13.40
2023-05-12T08:22:07.590Z,13.60
2023-05-12T08:24:35.476Z,13.70
2023-05-12T08:27:04.149Z,13.90
2023-05-12T08:29:32.367Z,13.90
2023-05-12T08:32:01.744Z,13.90
2023-05-12T08:34:30.292Z,13.80
2023-05-12T08:36:58.063Z,13.80
2023-05-12T08:39:25.512Z,13.90
2023-05-12T08:42:17.515Z,13.90
2023-05-12T08:44:44.996Z,13.70
2023-05-12T08:47:12.964Z,13.90
2023-05-12T08:49:40.311Z,13.90
2023-05-12T08:52:08.117Z,14.00
2023-05-12T08:54:42.412Z,13.90
2023-05-12T08:57:16.261Z,13.70
2023-05-12T08:59:46.944Z,13.90
2023-05-12T09:02:17.255Z,14.00
2023-05-12T09:04:44.655Z,14.00
2023-05-12T09:07:12.151Z,13.90
2023-05-12T09:09:40.406Z,13.90
2023-05-12T09:12:11.972Z,13.90
2023-05-12T09:14:42.497Z,13.80
2023-05-12T09:17:14.601Z,13.90
2023-05-12T09:19:41.948Z,13.70
2023-05-12T09:22:14.882Z,13.50
2023-05-12T09:24:42.203Z,13.50
2023-05-12T09:27:09.559Z,13.40
2023-05-12T09:29:58.586Z,13.30
2023-05-12T09:32:34.156Z,13.30
2023-05-12T09:35:05.271Z,13.30
2023-05-12T09:37:33.211Z,13.30
2023-05-12T09:40:01.693Z,13.40
2023-05-12T09:42:30.423Z,13.40
2023-05-12T09:45:02.821Z,13.40
2023-05-12T09:47:37.578Z,13.40
2023-05-12T09:50:05.979Z,13.40
2023-05-12T09:52:37.193Z,13.40
2023-05-12T09:55:13.729Z,13.10
2023-05-12T09:57:44.347Z,13.00
2023-05-12T10:00:32.838Z,12.90
2023-05-12T10:03:01.572Z,12.90
2023-05-12T10:05:30.002Z,12.90
2023-05-12T10:07:59.895Z,13.00
2023-05-12T10:10:28.110Z,13.00
2023-05-12T10:12:56.156Z,12.90
2023-05-12T10:15:25.042Z,12.80
2023-05-12T10:17:55.174Z,12.80
2023-05-12T10:20:23.071Z,12.70
2023-05-12T10:22:52.433Z,12.70
2023-05-12T10:25:20.457Z,12.70
2023-05-12T10:27:48.524Z,12.70
2023-05-12T10:30:16.268Z,12.60
2023-05-12T10:32:43.626Z,12.60
2023-05-12T10:35:12.528Z,12.60
2023-05-12T10:37:41.853Z,12.50
2023-05-12T10:40:11.140Z,12.50
2023-05-12T10:42:39.438Z,12.50
2023-05-12T10:45:20.091Z,12.40
2023-05-12T10:47:47.837Z,12.40
2023-05-12T10:50:26.142Z,12.30
2023-05-12T10:52:56.841Z,12.30
2023-05-12T10:55:31.730Z,12.40
2023-05-12T10:58:09.862Z,12.40
2023-05-12T11:00:44.830Z,12.40
2023-05-12T11:03:20.459Z,12.40
2023-05-12T11:05:59.102Z,12.40
2023-05-12T11:08:28.336Z,12.40
2023-05-12T11:10:56.034Z,12.40
2023-05-12T11:13:24.344Z,12.40
2023-05-12T11:15:51.813Z,12.40
2023-05-12T11:18:22.206Z,12.40
2023-05-12T11:20:50.220Z,12.40
2023-05-12T11:23:28.825Z,12.30
2023-05-12T11:25:56.360Z,12.20
2023-05-12T11:28:23.715Z,12.20
2023-05-12T11:30:55.314Z,12.30
2023-05-12T11:33:23.318Z,12.50
2023-05-12T11:35:50.814Z,12.20
2023-05-12T11:38:18.769Z,12.20
2023-05-12T11:40:46.106Z,12.10
2023-05-12T11:43:15.307Z,12.20
2023-05-12T11:45:42.692Z,12.20
2023-05-12T11:48:11.516Z,12.30
2023-05-12T11:50:40.625Z,12.40
2023-05-12T11:53:12.347Z,12.30
2023-05-12T11:55:47.394Z,12.30
2023-05-12T11:58:19.665Z,12.30
2023-05-12T12:00:47.234Z,12.30
2023-05-12T12:03:15.715Z,12.40
2023-05-12T12:05:45.325Z,12.40
2023-05-12T12:08:14.160Z,12.60
2023-05-12T12:10:45.126Z,12.70
2023-05-12T12:13:13.259Z,12.70
2023-05-12T12:15:40.608Z,12.70
2023-05-12T12:18:07.989Z,12.60
2023-05-12T12:20:35.416Z,12.60
2023-05-12T12:23:02.680Z,12.60
2023-05-12T12:25:30.048Z,12.50
2023-05-12T12:27:57.303Z,12.50
2023-05-12T12:30:24.569Z,12.50
2023-05-12T12:32:51.954Z,12.50
2023-05-12T12:35:19.457Z,12.50
2023-05-12T12:37:52.867Z,12.50
2023-05-12T12:40:20.254Z,12.50
2023-05-12T12:42:47.832Z,12.40
2023-05-12T12:45:15.188Z,12.40
2023-05-12T12:47:42.538Z,12.40
2023-05-12T12:50:10.653Z,12.30
2023-05-12T12:52:38.557Z,12.40
2023-05-12T12:55:06.788Z,12.20
2023-05-12T12:57:34.033Z,12.40
2023-05-12T13:00:01.425Z,12.40
2023-05-12T13:02:29.938Z,12.40
2023-05-12T13:04:57.360Z,12.40
2023-05-12T13:07:24.634Z,12.50
2023-05-12T13:09:52.003Z,12.40
2023-05-12T13:12:19.401Z,12.40
2023-05-12T13:14:46.676Z,12.40
2023-05-12T13:17:14.336Z,12.40
2023-05-12T13:19:45.165Z,12.40
2023-05-12T13:22:12.581Z,12.40
2023-05-12T13:24:39.858Z,12.30
2023-05-12T13:27:08.429Z,12.30
2023-05-12T13:29:36.338Z,12.30
2023-05-12T13:32:03.828Z,12.30
2023-05-12T13:34:31.100Z,12.30
2023-05-12T13:36:58.392Z,12.10
2023-05-12T13:39:25.752Z,12.10
2023-05-12T13:41:53.025Z,12.20
2023-05-12T13:44:20.363Z,12.20
2023-05-12T13:46:47.796Z,12.20
2023-05-12T13:49:17.769Z,12.20
2023-05-12T13:51:45.209Z,12.10
2023-05-12T13:54:14.335Z,12.00
2023-05-12T13:56:41.854Z,12.00
2023-05-12T13:59:10.374Z,11.90
2023-05-12T14:01:37.756Z,11.90
2023-05-12T14:04:05.115Z,11.90
2023-05-12T14:06:32.388Z,11.90
2023-05-12T14:09:00.154Z,11.90
2023-05-12T14:11:27.430Z,12.00
2023-05-12T14:13:54.835Z,12.00
2023-05-12T14:16:22.195Z,12.00
2023-05-12T14:18:49.580Z,12.00
2023-05-12T14:21:17.011Z,12.00
2023-05-12T14:23:44.272Z,12.00
2023-05-12T14:26:11.680Z,12.00
2023-05-12T14:28:39.207Z,12.10
2023-05-12T14:31:08.386Z,12.20
2023-05-12T14:33:35.676Z,12.10
2023-05-12T14:36:07.819Z,12.20
2023-05-12T14:38:36.072Z,12.10
2023-05-12T14:41:03.339Z,12.20
2023-05-12T14:43:30.660Z,12.20
2023-05-12T14:45:57.939Z,12.20
2023-05-12T14:48:28.255Z,12.30
2023-05-12T14:50:56.496Z,12.30
2023-05-12T14:53:23.863Z,12.20
2023-05-12T14:55:51.505Z,12.20
2023-05-12T14:58:19.057Z,12.30
2023-05-12T15:00:47.574Z,12.30
2023-05-12T15:03:15.095Z,12.30
2023-05-12T15:06:01.563Z,12.20
2023-05-12T15:08:29.684Z,12.20
2023-05-12T15:10:56.957Z,12.20
2023-05-12T15:13:24.229Z,12.10
2023-05-12T15:15:52.981Z,12.20
2023-05-12T15:18:22.548Z,12.20
2023-05-12T15:20:50.054Z,12.20
2023-05-12T15:23:17.301Z,12.20
2023-05-12T15:25:44.565Z,12.20
2023-05-12T15:28:11.876Z,12.20
2023-05-12T15:30:39.190Z,12.20
2023-05-12T15:33:07.069Z,12.20
2023-05-12T15:35:34.564Z,12.20
2023-05-12T15:38:01.899Z,12.20
2023-05-12T15:40:31.054Z,12.20
2023-05-12T15:42:58.524Z,12.20
2023-05-12T15:45:25.858Z,12.30
2023-05-12T15:47:53.278Z,12.30
2023-05-12T15:50:23.004Z,12.20
2023-05-12T15:52:50.804Z,12.20
2023-05-12T15:55:18.457Z,12.20
2023-05-12T15:57:45.900Z,12.20
2023-05-12T16:00:13.521Z,12.20
2023-05-12T16:02:40.932Z,12.20
2023-05-12T16:05:09.593Z,12.10
2023-05-12T16:07:36.902Z,12.10
2023-05-12T16:10:07.201Z,12.10
2023-05-12T16:12:34.566Z,12.20
2023-05-12T16:15:02.149Z,12.20
2023-05-12T16:17:29.730Z,12.20
2023-05-12T16:19:57.436Z,12.20
2023-05-12T16:22:24.707Z,12.20
2023-05-12T16:24:53.733Z,12.20
2023-05-12T16:27:20.998Z,12.20
2023-05-12T16:29:49.571Z,12.20
2023-05-12T16:32:17.539Z,12.20
2023-05-12T16:34:45.069Z,12.20
2023-05-12T16:37:12.516Z,12.20
2023-05-12T16:39:40.117Z,12.10
2023-05-12T16:42:08.270Z,12.20
2023-05-12T16:44:35.812Z,12.10
2023-05-12T16:47:03.425Z,12.10
2023-05-12T16:49:30.973Z,12.20
2023-05-12T16:51:58.624Z,12.10
2023-05-12T16:54:27.533Z,12.00
2023-05-12T16:56:56.511Z,12.00
2023-05-12T16:59:23.905Z,12.00
2023-05-12T17:01:52.468Z,11.80
2023-05-12T17:04:20.137Z,12.20
2023-05-12T17:06:50.543Z,12.20
2023-05-12T17:09:19.728Z,12.20
2023-05-12T17:11:48.034Z,12.20
2023-05-12T17:14:17.844Z,12.10
2023-05-12T17:16:46.763Z,12.00
2023-05-12T17:19:14.656Z,11.90
2023-05-12T17:21:42.905Z,11.90
2023-05-12T17:24:11.089Z,11.90
2023-05-12T17:26:38.701Z,11.90
2023-05-12T17:29:06.068Z,11.80
2023-05-12T17:31:33.489Z,11.70
2023-05-12T17:34:00.831Z,11.80
2023-05-12T17:36:28.260Z,11.80
2023-05-12T17:38:55.520Z,11.80
2023-05-12T17:41:25.514Z,11.80
2023-05-12T17:43:55.690Z,11.70
2023-05-12T17:46:23.211Z,11.70
2023-05-12T17:48:50.625Z,11.70
2023-05-12T17:51:17.908Z,11.80
2023-05-12T17:53:46.231Z,11.80
2023-05-12T17:56:13.498Z,11.80
2023-05-12T17:58:41.590Z,11.70
2023-05-12T18:01:09.255Z,11.70
2023-05-12T18:03:37.918Z,11.70
2023-05-12T18:06:05.711Z,11.70
2023-05-12T18:08:33.159Z,11.70
2023-05-12T18:11:00.534Z,11.70
2023-05-12T18:13:27.898Z,11.60
2023-05-12T18:15:55.390Z,11.70
2023-05-12T18:18:22.825Z,11.70
2023-05-12T18:20:51.515Z,11.70
2023-05-12T18:23:22.521Z,11.60
2023-05-12T18:25:51.131Z,11.60
2023-05-12T18:28:18.487Z,11.70
2023-05-12T18:30:45.908Z,11.60
2023-05-12T18:33:13.471Z,11.60
2023-05-12T18:35:40.892Z,11.60
2023-05-12T18:38:08.214Z,11.60
2023-05-12T18:40:35.538Z,11.60
2023-05-12T18:43:02.884Z,11.60
2023-05-12T18:45:30.179Z,11.60
2023-05-12T18:47:57.526Z,11.60
2023-05-12T18:50:24.832Z,11.60
2023-05-12T18:52:52.146Z,11.60
2023-05-12T18:55:19.654Z,11.60
2023-05-12T18:57:47.041Z,11.70
2023-05-12T19:00:15.001Z,11.70
2023-05-12T19:02:44.695Z,11.70
2023-05-12T19:05:11.988Z,11.60
2023-05-12T19:07:39.315Z,11.50
2023-05-12T19:10:06.963Z,11.50
2023-05-12T19:12:35.530Z,11.50
2023-05-12T19:15:02.827Z,11.40
2023-05-12T19:17:30.129Z,11.40
2023-05-12T19:19:57.551Z,11.40
2023-05-12T19:22:25.869Z,11.40
2023-05-12T19:24:53.748Z,11.40
2023-05-12T19:27:22.080Z,11.40
2023-05-12T19:29:50.466Z,11.40
2023-05-12T19:32:18.192Z,11.40
2023-05-12T19:34:46.147Z,11.40
2023-05-12T19:37:13.754Z,11.50
2023-05-12T19:39:41.061Z,11.40
2023-05-12T19:42:08.392Z,11.40
2023-05-12T19:44:35.836Z,11.40
2023-05-12T19:47:04.919Z,11.40
2023-05-12T19:49:33.428Z,11.40
2023-05-12T19:52:01.087Z,11.40
2023-05-12T19:54:28.635Z,11.40
2023-05-12T19:56:55.893Z,11.30
2023-05-12T19:59:23.282Z,11.30
2023-05-12T20:01:51.284Z,11.30
2023-05-12T20:04:18.584Z,11.30
2023-05-12T20:06:45.913Z,11.30
2023-05-12T20:09:13.359Z,11.30
2023-05-12T20:11:40.916Z,11.30
2023-05-12T20:14:08.182Z,11.30
2023-05-12T20:16:35.462Z,11.30
2023-05-12T20:19:03.170Z,11.60
2023-05-12T20:21:31.485Z,11.50
2023-05-12T20:23:58.726Z,11.60
2023-05-12T20:26:26.970Z,11.50
2023-05-12T20:28:54.281Z,11.60
2023-05-12T20:31:22.369Z,11.50
2023-05-12T20:33:49.670Z,11.50
2023-05-12T20:36:18.151Z,11.40
2023-05-12T20:38:45.470Z,11.40
2023-05-12T20:41:13.719Z,11.30
2023-05-12T20:43:41.434Z,11.30
2023-05-12T20:46:08.906Z,11.40
2023-05-12T20:48:36.463Z,11.30
2023-05-12T20:51:10.172Z,11.30
2023-05-12T20:53:37.483Z,11.30
2023-05-12T20:56:04.854Z,11.30
2023-05-12T20:58:32.125Z,11.30
2023-05-12T21:00:59.426Z,11.20
2023-05-12T21:03:27.416Z,11.20
2023-05-12T21:05:54.715Z,11.10
2023-05-12T21:08:22.040Z,11.30
2023-05-12T21:10:49.288Z,11.30
2023-05-12T21:13:16.654Z,11.20
2023-05-12T21:15:44.103Z,11.10
2023-05-12T21:18:13.205Z,11.00
2023-05-12T21:20:40.524Z,11.00
2023-05-12T21:23:12.374Z,11.00
2023-05-12T21:25:39.715Z,11.00
2023-05-12T21:28:07.572Z,11.00
2023-05-12T21:30:37.019Z,11.00
2023-05-12T21:33:05.043Z,11.00
2023-05-12T21:35:32.471Z,11.00
2023-05-12T21:38:01.122Z,11.00
2023-05-12T21:40:29.215Z,11.00
2023-05-12T21:42:56.497Z,11.00
2023-05-12T21:45:23.722Z,11.00
2023-05-12T21:47:51.469Z,11.00
2023-05-12T21:50:21.691Z,11.00
2023-05-12T21:52:49.815Z,10.90
2023-05-12T21:55:17.197Z,10.90
2023-05-12T21:57:44.862Z,10.90
2023-05-12T22:00:14.685Z,10.90
2023-05-12T22:02:43.033Z,10.90
2023-05-12T22:05:10.433Z,10.90
2023-05-12T22:07:37.689Z,10.90
2023-05-12T22:10:05.448Z,10.90
2023-05-12T22:12:32.765Z,10.90
2023-05-12T22:14:59.978Z,10.90
2023-05-12T22:17:27.295Z,10.90
2023-05-12T22:19:56.584Z,10.90
2023-05-12T22:22:26.627Z,10.90
2023-05-12T22:24:56.015Z,10.90
2023-05-12T22:27:23.570Z,10.90
2023-05-12T22:29:51.078Z,10.90
2023-05-12T22:32:18.410Z,10.90
2023-05-12T22:34:45.715Z,10.90
2023-05-12T22:37:12.944Z,10.80
2023-05-12T22:39:43.589Z,10.90
2023-05-12T22:42:11.480Z,10.90
2023-05-12T22:44:38.780Z,10.90
2023-05-12T22:47:06.789Z,10.90
2023-05-12T22:49:34.028Z,10.90
2023-05-12T22:52:01.323Z,11.00
2023-05-12T22:54:28.557Z,10.90
2023-05-12T22:56:55.947Z,10.90
2023-05-12T22:59:23.920Z,10.90
2023-05-12T23:01:51.599Z,10.90
2023-05-12T23:04:19.125Z,10.90
2023-05-12T23:06:47.829Z,11.00
2023-05-12T23:09:15.197Z,11.00
2023-05-12T23:11:42.607Z,11.00
2023-05-12T23:14:11.362Z,11.00
2023-05-12T23:16:38.679Z,11.00
2023-05-12T23:19:06.059Z,11.00
2023-05-12T23:21:33.402Z,11.10
2023-05-12T23:24:00.836Z,11.00
2023-05-12T23:26:28.202Z,11.00
2023-05-12T23:28:55.540Z,11.00
2023-05-12T23:31:23.012Z,11.00
2023-05-12T23:33:50.356Z,11.00
2023-05-12T23:36:17.689Z,10.90
2023-05-12T23:38:45.008Z,10.80
2023-05-12T23:41:12.339Z,10.80
2023-05-12T23:43:39.851Z,10.70
2023-05-12T23:46:07.170Z,10.80
2023-05-12T23:48:34.530Z,10.80
2023-05-12T23:51:01.783Z,10.70
2023-05-12T23:53:29.125Z,10.70
2023-05-12T23:55:56.346Z,10.90
2023-05-12T23:58:23.682Z,10.90
